Terminal Aerodrome Forecast
Issued by NWS Topeka, KS

Home | Current Version | Previous Version | Text Only | Print | Product List | Glossary Off
Versions: 1 2 3 4 5 6 7 8 9 10 11 12 13 14 15 16

000
FTUS43 KTOP 270850 AAA
TAFTOP
TAF AMD
KTOP 270850Z 2709/2806 08004KT P6SM FEW200
      TEMPO 2709/2713 4SM BR SCT004
     FM271400 12007KT P6SM FEW150
     FM271800 15011KT P6SM FEW200=

USA.gov is the U.S. government's official web portal to all federal, state and local government web resources and services.